Time;durP1;ratioP1;P1;durP2;ratioP2;P2;SDS_P1;SDS_P2;PMS_P1;PMS_P2;Temp;Humidity;BMP_temperature;BMP_pressure;BME280_temperature;BME280_humidity;BME280_pressure;Samples;Min_cycle;Max_cycle;Signal;HPM_P1;HPM_P2
2023/03/26 00:18:33;;;;;;;;;;;;;;;8.27;nan;97843.44;4382398;23;21156;-89
2023/03/26 00:32:38;;;;;;;;;;;;;;;8.54;nan;97838.06;4903684;29;19923;-90
2023/03/26 00:39:08;;;;;;;;;;;;;;;8.51;nan;97843.72;4901643;29;19926;-91
2023/03/26 00:45:39;;;;;;;;;;;;;;;8.25;nan;97840.19;4905489;29;19961;-90
2023/03/26 04:18:09;;;;;;;;;;;;;;;6.85;nan;97809.00;1011556;23;21467;-89
2023/03/26 04:21:23;;;;;;;;;;;;;;;7.22;nan;97812.00;4918599;29;19974;-90
2023/03/26 04:24:21;;;;;;;;;;;;;;;6.86;nan;97816.66;4922644;29;19939;-90
2023/03/26 04:27:14;;;;;;;;;;;;;;;7.23;nan;97816.22;4920448;29;19926;-89
2023/03/26 04:30:05;;;;;;;;;;;;;;;7.02;nan;97813.81;4920646;29;19922;-89
2023/03/26 04:32:53;;;;;;;;;;;;;;;6.93;nan;97813.22;4920784;29;19943;-89
2023/03/26 04:35:40;;;;;;;;;;;;;;;7.03;nan;97818.03;4920040;29;20265;-90
2023/03/26 04:38:35;;;;;;;;;;;;;;;;;;;;;
2023/03/26 05:00:21;;;;;;;;;;;;;;;6.88;nan;97826.88;4921507;29;19978;-89
2023/03/26 05:10:25;;;;;;;;;;;;;;;6.53;nan;97837.47;4920832;29;20471;-89
2023/03/26 05:13:09;;;;;;;;;;;;;;;6.43;nan;97836.03;4907223;29;19937;-89
2023/03/26 05:15:59;;;;;;;;;;;;;;;6.58;nan;97850.72;4920087;29;19966;-89
2023/03/26 05:18:56;;;;;;;;;;;;;;;6.49;nan;97850.09;4906226;29;19939;-89
2023/03/26 05:21:43;;;;;;;;;;;;;;;6.37;nan;97847.25;4906076;29;20277;-89
2023/03/26 05:24:27;;;;;;;;;;;;;;;6.57;nan;97852.50;4905489;29;19922;-89
2023/03/26 05:27:17;;;;;;;;;;;;;;;6.55;nan;97856.34;4906083;29;19939;-89
2023/03/26 05:30:06;;;;;;;;;;;;;;;6.30;nan;97862.09;4906338;29;19922;-89
2023/03/26 05:39:59;;;;;;;;;;;;;;;6.06;nan;97874.59;4923088;29;20035;-89
2023/03/26 06:01:29;;;;;;;;;;;;;;;6.33;nan;97894.75;4923655;29;20342;-90
2023/03/26 06:15:39;;;;;;;;;;;;;;;6.05;nan;97922.50;4867804;29;19998;-90
2023/03/26 06:36:41;;;;;;;;;;;;;;;6.19;nan;97949.44;4851537;29;19943;-89
2023/03/26 06:39:26;;;;;;;;;;;;;;;6.04;nan;97962.56;4871639;29;20429;-90
2023/03/26 06:42:13;;;;;;;;;;;;;;;6.22;nan;97964.69;4868900;29;19927;-89
2023/03/26 06:45:03;;;;;;;;;;;;;;;5.86;nan;97966.44;4859097;29;19923;-89
2023/03/26 06:58:50;;;;;;;;;;;;;;;6.24;nan;97985.31;4918584;29;19910;-90
2023/03/26 07:01:37;;;;;;;;;;;;;;;6.30;nan;97981.97;4902761;29;19927;-91
2023/03/26 07:04:33;;;;;;;;;;;;;;;6.48;nan;97985.84;4890603;29;19940;-89
2023/03/26 07:18:28;;;;;;;;;;;;;;;6.27;nan;98011.00;4860029;29;20018;-90
2023/03/26 07:24:51;;;;;;;;;;;;;;;6.20;nan;98017.97;4867192;29;19926;-89
2023/03/26 07:28:05;;;;;;;;;;;;;;;6.55;nan;98031.00;4891211;29;19958;-90
2023/03/26 07:49:38;;;;;;;;;;;;;;;;;;;;;
2023/03/26 08:11:14;;;;;;;;;;;;;;;6.03;nan;98101.63;4889994;29;20387;-89
2023/03/26 08:29:11;;;;;;;;;;;;;;;6.81;nan;98118.19;4900533;29;19954;-89
2023/03/26 08:31:56;;;;;;;;;;;;;;;6.95;nan;98130.31;4899248;29;19992;-90
2023/03/26 08:34:52;;;;;;;;;;;;;;;7.17;nan;98135.44;4885873;29;20423;-89
2023/03/26 08:37:44;;;;;;;;;;;;;;;7.07;nan;98134.97;4886164;29;20010;-91
2023/03/26 08:55:37;;;;;;;;;;;;;;;7.35;nan;98170.63;4938876;29;19941;-91
2023/03/26 08:58:42;;;;;;;;;;;;;;;7.47;nan;98168.28;4926165;29;19921;-91
2023/03/26 09:01:48;;;;;;;;;;;;;;;7.75;nan;98173.38;4936655;29;19965;-91
2023/03/26 09:12:00;;;;;;;;;;;;;;;7.61;nan;98190.81;4939850;29;19960;-90
2023/03/26 09:15:03;;;;;;;;;;;;;;;8.22;nan;98193.53;4937194;29;19942;-90
2023/03/26 09:18:06;;;;;;;;;;;;;;;8.23;nan;98208.22;4929424;29;19961;-92
2023/03/26 09:21:26;;;;;;;;;;;;;;;8.10;nan;98198.56;4924079;29;20005;-90
2023/03/26 09:35:21;;;;;;;;;;;;;;;7.80;nan;98212.75;4962609;28;19973;-91
2023/03/26 09:38:10;;;;;;;;;;;;;;;8.14;nan;98220.69;4946564;29;20056;-90
2023/03/26 09:52:02;;;;;;;;;;;;;;;8.29;nan;98255.28;4875354;29;19984;-91
2023/03/26 10:24:19;;;;;;;;;;;;;;;;;;;;;
2023/03/26 10:53:16;;;;;;;;;;;;;;;;;;;;;
2023/03/26 11:07:05;;;;;;;;;;;;;;;9.42;nan;98383.81;4866980;29;19939;-91
2023/03/26 11:10:04;;;;;;;;;;;;;;;9.35;nan;98392.66;4856007;29;19961;-91
2023/03/26 11:13:08;;;;;;;;;;;;;;;9.85;nan;98395.63;4852171;29;19923;-91
2023/03/26 11:15:58;;;;;;;;;;;;;;;9.64;nan;98390.63;4856615;29;20393;-88
2023/03/26 11:19:05;;;;;;;;;;;;;;;9.51;nan;98396.69;4861127;29;19924;-90
2023/03/26 11:22:13;;;;;;;;;;;;;;;10.35;nan;98407.34;4932834;29;20011;-92
2023/03/26 11:35:41;;;;;;;;;;;;;;;9.57;nan;98422.09;4948769;29;19966;-89
2023/03/26 11:38:45;;;;;;;;;;;;;;;9.56;nan;98426.50;4934074;29;19921;-88
2023/03/26 11:41:30;;;;;;;;;;;;;;;9.39;nan;98433.97;4933929;29;20025;-89
2023/03/26 11:44:20;;;;;;;;;;;;;;;9.30;nan;98448.28;4936731;29;19922;-89
2023/03/26 11:47:08;;;;;;;;;;;;;;;9.65;nan;98455.16;4932287;29;19926;-90
2023/03/26 11:49:54;;;;;;;;;;;;;;;9.78;nan;98454.31;4937246;29;20273;-91
2023/03/26 11:52:41;;;;;;;;;;;;;;;9.84;nan;98454.31;4949535;28;19982;-91
2023/03/26 11:55:26;;;;;;;;;;;;;;;10.17;nan;98457.88;4928129;29;19934;-89
2023/03/26 11:58:20;;;;;;;;;;;;;;;10.09;nan;98469.38;4949425;29;19921;-90
2023/03/26 12:01:28;;;;;;;;;;;;;;;10.22;nan;98465.09;4955306;29;19945;-89
2023/03/26 12:04:14;;;;;;;;;;;;;;;9.79;nan;98482.94;4932035;29;20030;-89
2023/03/26 12:07:40;;;;;;;;;;;;;;;10.04;nan;98484.94;4931956;29;19981;-90
2023/03/26 12:14:04;;;;;;;;;;;;;;;10.06;nan;98496.03;4950308;29;19920;-90
2023/03/26 12:20:25;;;;;;;;;;;;;;;9.97;nan;98515.59;4941383;29;19973;-90
2023/03/26 12:23:32;;;;;;;;;;;;;;;9.82;nan;98516.59;4929584;29;19926;-89
2023/03/26 12:45:21;;;;;;;;;;;;;;;;;;;;;
2023/03/26 13:10:28;;;;;;;;;;;;;;;8.64;nan;98611.97;4941331;29;20521;-90
2023/03/26 13:13:15;;;;;;;;;;;;;;;8.78;nan;98613.66;4931786;29;19960;-90
2023/03/26 13:30:55;;;;;;;;;;;;;;;8.61;nan;98644.53;4864559;29;19966;-90
2023/03/26 13:52:08;;;;;;;;;;;;;;;9.89;nan;98665.22;4935518;29;19991;-90
2023/03/26 13:55:11;;;;;;;;;;;;;;;10.29;nan;98665.25;4933859;29;19965;-91
2023/03/26 13:58:03;;;;;;;;;;;;;;;10.13;nan;98672.53;4923351;29;19986;-88
2023/03/26 14:01:02;;;;;;;;;;;;;;;9.64;nan;98673.66;4949988;29;19926;-90
2023/03/26 14:03:53;;;;;;;;;;;;;;;9.42;nan;98676.38;4922911;29;19937;-89
2023/03/26 14:06:40;;;;;;;;;;;;;;;9.22;nan;98684.94;4949460;29;19922;-90
2023/03/26 14:09:40;;;;;;;;;;;;;;;9.61;nan;98687.13;4922339;29;19962;-91
2023/03/26 14:12:24;;;;;;;;;;;;;;;9.45;nan;98680.44;4949644;29;19925;-89
2023/03/26 14:15:37;;;;;;;;;;;;;;;9.16;nan;98698.84;4923325;29;19925;-90
2023/03/26 14:18:27;;;;;;;;;;;;;;;9.09;nan;98693.56;4922773;29;19937;-90
2023/03/26 14:21:20;;;;;;;;;;;;;;;8.82;nan;98703.06;4939090;29;19925;-92
2023/03/26 14:24:09;;;;;;;;;;;;;;;8.83;nan;98713.34;4965281;29;19922;-91
2023/03/26 14:27:05;;;;;;;;;;;;;;;8.48;nan;98728.16;4928452;29;19921;-89
2023/03/26 14:30:10;;;;;;;;;;;;;;;8.38;nan;98734.50;4954015;29;20005;-90
2023/03/26 14:33:01;;;;;;;;;;;;;;;8.49;nan;98740.22;4926099;29;19921;-89
2023/03/26 14:36:04;;;;;;;;;;;;;;;8.28;nan;98739.25;4933885;29;19978;-88
2023/03/26 14:38:51;;;;;;;;;;;;;;;8.25;nan;98744.81;4926594;29;19979;-91
2023/03/26 14:41:38;;;;;;;;;;;;;;;8.77;nan;98747.31;4926181;29;20406;-89
2023/03/26 14:44:22;;;;;;;;;;;;;;;7.96;nan;98757.81;4934744;29;20340;-92
2023/03/26 14:47:14;;;;;;;;;;;;;;;8.54;nan;98764.03;4926180;29;19942;-89
2023/03/26 14:50:02;;;;;;;;;;;;;;;8.51;nan;98770.44;4925028;29;19921;-93
2023/03/26 14:52:51;;;;;;;;;;;;;;;8.64;nan;98774.97;4925374;29;19937;-89
2023/03/26 14:55:49;;;;;;;;;;;;;;;8.63;nan;98778.59;4952791;29;19921;-92
2023/03/26 14:58:48;;;;;;;;;;;;;;;8.85;nan;98775.97;4926238;29;19953;-91
2023/03/26 15:01:38;;;;;;;;;;;;;;;8.76;nan;98788.38;4925739;29;19973;-91
2023/03/26 15:04:26;;;;;;;;;;;;;;;8.90;nan;98793.72;4943475;29;20379;-89
2023/03/26 15:07:21;;;;;;;;;;;;;;;8.99;nan;98798.63;4925866;29;19993;-89
2023/03/26 15:10:32;;;;;;;;;;;;;;;9.06;nan;98813.59;4925673;29;19977;-90
2023/03/26 15:13:35;;;;;;;;;;;;;;;8.73;nan;98812.28;4914978;29;19961;-90
2023/03/26 15:16:38;;;;;;;;;;;;;;;9.02;nan;98820.19;4933888;29;20014;-89
2023/03/26 15:19:48;;;;;;;;;;;;;;;9.13;nan;98840.63;4938685;29;20372;-90
2023/03/26 15:22:51;;;;;;;;;;;;;;;8.83;nan;98836.34;4927478;29;19921;-90
2023/03/26 15:26:06;;;;;;;;;;;;;;;8.44;nan;98853.25;4943623;29;19965;-91
2023/03/26 15:29:07;;;;;;;;;;;;;;;8.32;nan;98860.78;4904828;29;19970;-91
2023/03/26 15:31:57;;;;;;;;;;;;;;;8.14;nan;98869.81;4906677;29;19922;-89
2023/03/26 15:34:59;;;;;;;;;;;;;;;8.16;nan;98872.28;4906079;29;20002;-91
2023/03/26 15:37:59;;;;;;;;;;;;;;;8.20;nan;98878.75;4922546;29;19921;-88
2023/03/26 15:44:24;;;;;;;;;;;;;;;8.59;nan;98882.00;4947908;29;19920;-90
2023/03/26 15:47:35;;;;;;;;;;;;;;;8.35;nan;98885.72;4933892;29;19937;-91
2023/03/26 15:50:22;;;;;;;;;;;;;;;8.39;nan;98900.09;4930355;29;20078;-89
2023/03/26 15:53:13;;;;;;;;;;;;;;;8.30;nan;98899.38;4926303;29;19925;-89
2023/03/26 15:56:05;;;;;;;;;;;;;;;8.13;nan;98903.97;4944950;29;19968;-90
2023/03/26 15:59:06;;;;;;;;;;;;;;;7.86;nan;98916.69;4951897;29;19969;-89
2023/03/26 16:02:01;;;;;;;;;;;;;;;7.76;nan;98908.31;4946258;29;19973;-87
2023/03/26 16:04:57;;;;;;;;;;;;;;;8.00;nan;98915.91;4936657;29;19961;-86
2023/03/26 16:07:57;;;;;;;;;;;;;;;8.10;nan;98918.25;4930455;29;20365;-88
2023/03/26 16:10:50;;;;;;;;;;;;;;;8.33;nan;98929.56;4936385;29;19922;-88
2023/03/26 16:13:39;;;;;;;;;;;;;;;8.51;nan;98931.84;4928738;29;19921;-87
2023/03/26 16:16:43;;;;;;;;;;;;;;;8.28;nan;98938.78;4943423;29;19982;-87
2023/03/26 16:19:35;;;;;;;;;;;;;;;8.34;nan;98932.00;4947303;29;19930;-88
2023/03/26 16:22:35;;;;;;;;;;;;;;;8.39;nan;98939.31;4937579;29;19976;-87
2023/03/26 16:25:29;;;;;;;;;;;;;;;8.36;nan;98940.47;4930076;29;19930;-88
2023/03/26 16:28:32;;;;;;;;;;;;;;;8.39;nan;98950.56;4928003;29;20006;-88
2023/03/26 16:31:22;;;;;;;;;;;;;;;8.67;nan;98952.56;4930426;29;19914;-86
2023/03/26 16:34:09;;;;;;;;;;;;;;;8.76;nan;98955.88;4942726;29;19921;-87
2023/03/26 16:36:54;;;;;;;;;;;;;;;8.71;nan;98953.81;4934450;29;19965;-85
2023/03/26 16:39:43;;;;;;;;;;;;;;;8.47;nan;98964.56;4925904;29;19987;-84
2023/03/26 16:42:35;;;;;;;;;;;;;;;8.49;nan;98970.44;4929715;29;19921;-84
2023/03/26 16:45:25;;;;;;;;;;;;;;;8.46;nan;98982.06;4932748;29;19913;-84
2023/03/26 16:48:18;;;;;;;;;;;;;;;8.10;nan;98991.44;4932163;29;19921;-86
2023/03/26 16:51:02;;;;;;;;;;;;;;;7.87;nan;99001.94;4931071;29;19926;-86
2023/03/26 16:54:12;;;;;;;;;;;;;;;8.09;nan;99002.91;4933211;29;19930;-86
2023/03/26 16:57:09;;;;;;;;;;;;;;;7.88;nan;99000.16;4912942;29;19921;-85
2023/03/26 17:00:23;;;;;;;;;;;;;;;7.90;nan;98998.19;4945443;29;20451;-88
2023/03/26 17:03:11;;;;;;;;;;;;;;;8.18;nan;99010.63;4939046;29;20240;-88
2023/03/26 17:05:55;;;;;;;;;;;;;;;8.35;nan;99016.50;4944349;29;19924;-88
2023/03/26 17:08:45;;;;;;;;;;;;;;;8.23;nan;99023.97;4933513;29;20424;-87
2023/03/26 17:11:40;;;;;;;;;;;;;;;7.92;nan;99027.56;4933726;29;19922;-85
2023/03/26 17:14:33;;;;;;;;;;;;;;;7.71;nan;99039.50;4950846;29;19921;-86
2023/03/26 17:17:30;;;;;;;;;;;;;;;7.75;nan;99048.59;4926952;29;19956;-88
2023/03/26 17:20:32;;;;;;;;;;;;;;;7.14;nan;99071.03;4926259;29;19926;-86
2023/03/26 17:23:16;;;;;;;;;;;;;;;6.82;nan;99074.59;4929232;29;19926;-86
2023/03/26 17:26:04;;;;;;;;;;;;;;;6.80;nan;99073.97;4932711;29;19998;-87
2023/03/26 17:29:03;;;;;;;;;;;;;;;6.56;nan;99081.69;4946164;29;20304;-85
2023/03/26 17:31:51;;;;;;;;;;;;;;;6.25;nan;99089.41;4919302;29;19922;-84
2023/03/26 17:34:47;;;;;;;;;;;;;;;6.48;nan;99099.97;4933313;29;20064;-84
2023/03/26 17:37:42;;;;;;;;;;;;;;;6.46;nan;99106.31;4939939;29;19922;-87
2023/03/26 17:40:29;;;;;;;;;;;;;;;6.41;nan;99118.06;4931718;29;19969;-87
2023/03/26 17:43:33;;;;;;;;;;;;;;;6.42;nan;99117.09;4927107;29;19925;-86
2023/03/26 17:46:28;;;;;;;;;;;;;;;6.55;nan;99121.00;4927951;29;20427;-87
2023/03/26 17:49:12;;;;;;;;;;;;;;;6.69;nan;99130.75;4926916;29;20006;-87
2023/03/26 17:52:02;;;;;;;;;;;;;;;6.71;nan;99134.00;4940690;29;20461;-86
2023/03/26 17:54:48;;;;;;;;;;;;;;;6.87;nan;99134.91;4945792;29;19926;-86
2023/03/26 17:57:40;;;;;;;;;;;;;;;7.05;nan;99136.47;4950134;29;19937;-88
2023/03/26 18:00:28;;;;;;;;;;;;;;;6.91;nan;99146.66;4953388;29;20009;-87
2023/03/26 18:03:32;;;;;;;;;;;;;;;6.93;nan;99149.91;4942117;29;19929;-88
2023/03/26 18:06:47;;;;;;;;;;;;;;;6.70;nan;99171.50;4948707;29;20304;-87
2023/03/26 18:09:56;;;;;;;;;;;;;;;6.83;nan;99170.16;4929721;29;19925;-87
2023/03/26 18:13:02;;;;;;;;;;;;;;;6.75;nan;99175.41;4925198;29;19922;-86
2023/03/26 18:15:46;;;;;;;;;;;;;;;6.94;nan;99184.63;4932848;29;19941;-87
2023/03/26 18:18:30;;;;;;;;;;;;;;;6.96;nan;99180.91;4934610;29;19920;-86
2023/03/26 18:21:21;;;;;;;;;;;;;;;7.02;nan;99171.59;4933256;29;19926;-89
2023/03/26 18:24:07;;;;;;;;;;;;;;;6.81;nan;99161.69;4938102;29;20033;-89
2023/03/26 18:26:54;;;;;;;;;;;;;;;6.83;nan;99170.16;4945124;29;19920;-90
2023/03/26 18:29:44;;;;;;;;;;;;;;;7.04;nan;99176.63;4934876;29;19938;-86
2023/03/26 18:32:32;;;;;;;;;;;;;;;6.81;nan;99166.91;4940058;29;20293;-86
2023/03/26 18:35:19;;;;;;;;;;;;;;;6.81;nan;99161.69;4955453;29;20287;-88
2023/03/26 18:38:03;;;;;;;;;;;;;;;6.79;nan;99174.91;4954058;29;19942;-90
2023/03/26 18:40:49;;;;;;;;;;;;;;;6.85;nan;99182.06;4944961;29;19982;-89
2023/03/26 18:47:06;;;;;;;;;;;;;;;6.88;nan;99191.38;4959579;29;20420;-87
2023/03/26 18:53:20;;;;;;;;;;;;;;;7.18;nan;99214.28;4940201;29;19994;-90
2023/03/26 18:56:17;;;;;;;;;;;;;;;7.08;nan;99217.09;4943680;29;20337;-89
2023/03/26 18:59:03;;;;;;;;;;;;;;;7.28;nan;99230.56;4943504;29;19922;-87
2023/03/26 19:01:49;;;;;;;;;;;;;;;7.34;nan;99229.88;4957783;28;19941;-88
2023/03/26 19:04:33;;;;;;;;;;;;;;;7.37;nan;99239.19;4943357;29;19985;-89
2023/03/26 19:07:22;;;;;;;;;;;;;;;7.39;nan;99243.25;4943900;29;19933;-90
2023/03/26 19:10:14;;;;;;;;;;;;;;;7.34;nan;99249.97;4935049;29;19969;-87
2023/03/26 19:12:59;;;;;;;;;;;;;;;7.08;nan;99251.03;4924460;29;19922;-89
2023/03/26 19:15:45;;;;;;;;;;;;;;;7.26;nan;99254.22;4951300;29;19947;-87
2023/03/26 19:18:29;;;;;;;;;;;;;;;7.14;nan;99252.97;4955534;29;19964;-89
2023/03/26 19:21:14;;;;;;;;;;;;;;;6.96;nan;99264.41;4951114;29;20285;-90
2023/03/26 19:23:59;;;;;;;;;;;;;;;7.02;nan;99272.53;4957125;29;19921;-88
2023/03/26 19:26:44;;;;;;;;;;;;;;;6.94;nan;99278.59;4938913;29;19921;-91
2023/03/26 19:29:30;;;;;;;;;;;;;;;6.91;nan;99282.34;4949726;29;19921;-90
2023/03/26 19:32:18;;;;;;;;;;;;;;;7.00;nan;99277.94;4954915;29;19929;-87
2023/03/26 19:35:03;;;;;;;;;;;;;;;6.89;nan;99283.50;4950425;29;20020;-88
2023/03/26 19:37:53;;;;;;;;;;;;;;;7.05;nan;99282.66;4958385;29;19938;-91
2023/03/26 19:40:40;;;;;;;;;;;;;;;7.04;nan;99286.25;4918985;29;19974;-89
2023/03/26 19:43:33;;;;;;;;;;;;;;;6.60;nan;99290.84;4924432;29;19973;-89
2023/03/26 19:46:23;;;;;;;;;;;;;;;6.51;nan;99307.47;4942734;29;20412;-88
2023/03/26 19:49:23;;;;;;;;;;;;;;;6.61;nan;99302.91;4957052;29;19922;-89
2023/03/26 19:52:16;;;;;;;;;;;;;;;6.48;nan;99305.97;4932785;29;19922;-89
2023/03/26 19:55:22;;;;;;;;;;;;;;;6.25;nan;99314.41;4940809;29;19969;-88
2023/03/26 19:58:09;;;;;;;;;;;;;;;6.37;nan;99316.72;4904441;29;20401;-87
2023/03/26 20:00:54;;;;;;;;;;;;;;;6.54;nan;99320.19;4937824;29;19927;-87
2023/03/26 20:03:39;;;;;;;;;;;;;;;6.41;nan;99325.88;4953611;29;19969;-87
2023/03/26 20:06:27;;;;;;;;;;;;;;;6.31;nan;99328.63;4924857;29;19976;-87
2023/03/26 20:09:12;;;;;;;;;;;;;;;6.62;nan;99335.81;4929228;29;20012;-88
2023/03/26 20:11:56;;;;;;;;;;;;;;;6.61;nan;99336.00;4936380;29;19974;-89
2023/03/26 20:14:42;;;;;;;;;;;;;;;6.41;nan;99333.69;4944838;28;19937;-87
2023/03/26 20:17:35;;;;;;;;;;;;;;;6.49;nan;99344.13;4947709;29;19941;-86
2023/03/26 20:20:19;;;;;;;;;;;;;;;6.30;nan;99345.22;4932032;29;19989;-87
2023/03/26 20:23:05;;;;;;;;;;;;;;;6.36;nan;99349.81;4949792;29;19975;-88
2023/03/26 20:25:53;;;;;;;;;;;;;;;6.29;nan;99352.22;4949923;29;19921;-89
2023/03/26 20:32:49;;;;;;;;;;;;;;;6.48;nan;99363.34;4953091;29;20336;-87
2023/03/26 20:35:33;;;;;;;;;;;;;;;6.29;nan;99373.06;4909487;29;20289;-86
2023/03/26 20:38:18;;;;;;;;;;;;;;;6.63;nan;99376.56;4954546;29;19921;-90
2023/03/26 20:41:03;;;;;;;;;;;;;;;6.60;nan;99376.09;4936247;29;20407;-89
2023/03/26 20:43:49;;;;;;;;;;;;;;;6.82;nan;99375.47;4955190;29;19942;-90
2023/03/26 20:46:33;;;;;;;;;;;;;;;6.81;nan;99371.25;4923923;29;19921;-88
2023/03/26 20:49:17;;;;;;;;;;;;;;;6.71;nan;99386.22;4908883;29;19920;-87
2023/03/26 20:52:01;;;;;;;;;;;;;;;6.68;nan;99387.38;4934497;29;19922;-88
2023/03/26 20:54:45;;;;;;;;;;;;;;;6.60;nan;99384.72;4952645;29;19929;-89
2023/03/26 20:57:31;;;;;;;;;;;;;;;6.64;nan;99391.25;4929912;29;19969;-88
2023/03/26 21:00:21;;;;;;;;;;;;;;;6.35;nan;99392.50;4931565;29;19995;-88
2023/03/26 21:03:06;;;;;;;;;;;;;;;6.41;nan;99397.06;4934260;29;19921;-88
2023/03/26 21:05:51;;;;;;;;;;;;;;;6.22;nan;99395.56;4944958;29;20009;-87
2023/03/26 21:08:38;;;;;;;;;;;;;;;6.18;nan;99398.63;4925577;29;19922;-87
2023/03/26 21:11:31;;;;;;;;;;;;;;;6.09;nan;99401.22;4937743;29;19965;-89
2023/03/26 21:14:19;;;;;;;;;;;;;;;6.02;nan;99408.00;4950154;29;19921;-89
2023/03/26 21:17:04;;;;;;;;;;;;;;;6.13;nan;99407.72;4927394;29;20009;-88
2023/03/26 21:19:49;;;;;;;;;;;;;;;6.18;nan;99422.06;4922853;29;19999;-89
2023/03/26 21:22:33;;;;;;;;;;;;;;;5.99;nan;99431.72;4953038;29;20012;-89
2023/03/26 21:25:34;;;;;;;;;;;;;;;5.87;nan;99439.00;4930105;29;19921;-88
2023/03/26 21:28:25;;;;;;;;;;;;;;;5.74;nan;99431.59;4925567;29;19957;-89
2023/03/26 21:31:12;;;;;;;;;;;;;;;6.05;nan;99438.16;4954271;29;19956;-89
2023/03/26 21:33:56;;;;;;;;;;;;;;;5.83;nan;99441.09;4921001;29;19936;-87
2023/03/26 21:36:46;;;;;;;;;;;;;;;5.79;nan;99439.75;4954508;29;19921;-90
2023/03/26 21:39:31;;;;;;;;;;;;;;;5.89;nan;99442.25;4941067;29;19922;-88
2023/03/26 21:42:15;;;;;;;;;;;;;;;5.83;nan;99443.69;4928061;29;19921;-89
2023/03/26 21:45:00;;;;;;;;;;;;;;;5.63;nan;99440.47;4954193;29;19921;-87
2023/03/26 21:47:45;;;;;;;;;;;;;;;5.71;nan;99447.53;4933315;29;19918;-88
2023/03/26 21:50:32;;;;;;;;;;;;;;;5.75;nan;99438.44;4954050;29;19978;-89
2023/03/26 21:53:16;;;;;;;;;;;;;;;5.77;nan;99457.34;4929487;29;19973;-88
2023/03/26 21:56:04;;;;;;;;;;;;;;;5.70;nan;99453.72;4931967;29;20269;-91
2023/03/26 21:59:00;;;;;;;;;;;;;;;5.61;nan;99463.25;4940702;29;19936;-90
2023/03/26 22:01:44;;;;;;;;;;;;;;;5.69;nan;99454.66;4939930;29;20292;-88
2023/03/26 22:04:43;;;;;;;;;;;;;;;5.57;nan;99467.94;4921948;29;19965;-88
2023/03/26 22:07:43;;;;;;;;;;;;;;;5.46;nan;99468.16;4950399;29;19921;-90
2023/03/26 22:10:28;;;;;;;;;;;;;;;5.85;nan;99473.00;4955027;29;19951;-89
2023/03/26 22:13:12;;;;;;;;;;;;;;;5.60;nan;99481.63;4937809;29;19970;-87
2023/03/26 22:15:57;;;;;;;;;;;;;;;5.96;nan;99481.56;4949991;29;20281;-89
2023/03/26 22:18:42;;;;;;;;;;;;;;;5.65;nan;99485.41;4948818;29;19921;-87
2023/03/26 22:21:26;;;;;;;;;;;;;;;5.95;nan;99495.56;4951823;29;20411;-87
2023/03/26 22:24:10;;;;;;;;;;;;;;;5.48;nan;99497.47;4944160;29;19961;-87
2023/03/26 22:26:57;;;;;;;;;;;;;;;5.41;nan;99502.47;4952304;29;19921;-88
2023/03/26 22:29:41;;;;;;;;;;;;;;;5.51;nan;99499.81;4933009;29;19965;-87
2023/03/26 22:32:25;;;;;;;;;;;;;;;5.43;nan;99512.72;4948390;29;19966;-89
2023/03/26 22:35:09;;;;;;;;;;;;;;;5.50;nan;99508.59;4953791;29;19922;-89
2023/03/26 22:37:53;;;;;;;;;;;;;;;5.53;nan;99510.88;4936087;29;20392;-89
2023/03/26 22:40:37;;;;;;;;;;;;;;;5.57;nan;99520.03;4939363;29;19926;-88
2023/03/26 22:43:22;;;;;;;;;;;;;;;5.35;nan;99523.09;4947355;29;19921;-87
2023/03/26 22:46:06;;;;;;;;;;;;;;;5.36;nan;99519.50;4943942;29;20344;-89
2023/03/26 22:48:50;;;;;;;;;;;;;;;5.24;nan;99529.31;4943747;29;19956;-88
2023/03/26 22:51:34;;;;;;;;;;;;;;;5.33;nan;99527.63;4930884;29;19922;-88
2023/03/26 22:54:18;;;;;;;;;;;;;;;5.11;nan;99525.28;4956812;29;19925;-88
2023/03/26 22:57:02;;;;;;;;;;;;;;;4.99;nan;99531.66;4932650;29;20396;-90
2023/03/26 22:59:46;;;;;;;;;;;;;;;5.13;nan;99538.97;4950451;29;19992;-86
2023/03/26 23:02:30;;;;;;;;;;;;;;;5.23;nan;99549.31;4942266;29;19922;-87
2023/03/26 23:05:17;;;;;;;;;;;;;;;5.14;nan;99561.41;4946377;29;19993;-87
2023/03/26 23:08:01;;;;;;;;;;;;;;;5.15;nan;99559.66;4942554;29;20411;-87
2023/03/26 23:10:45;;;;;;;;;;;;;;;5.08;nan;99564.63;4936781;29;19975;-88
2023/03/26 23:13:30;;;;;;;;;;;;;;;4.92;nan;99564.44;4957185;29;19920;-90
2023/03/26 23:16:14;;;;;;;;;;;;;;;4.91;nan;99568.78;4926674;29;19921;-87
2023/03/26 23:18:59;;;;;;;;;;;;;;;5.10;nan;99551.44;4953025;29;20037;-88
2023/03/26 23:21:43;;;;;;;;;;;;;;;4.91;nan;99555.78;4933095;29;20493;-88
2023/03/26 23:24:28;;;;;;;;;;;;;;;4.97;nan;99563.03;4932180;29;19978;-88
2023/03/26 23:27:12;;;;;;;;;;;;;;;4.91;nan;99575.78;4954016;29;19921;-86
2023/03/26 23:29:56;;;;;;;;;;;;;;;4.74;nan;99580.78;4943345;29;19981;-91
2023/03/26 23:32:40;;;;;;;;;;;;;;;4.90;nan;99584.56;4941703;29;20444;-88
2023/03/26 23:35:24;;;;;;;;;;;;;;;4.96;nan;99582.22;4933282;29;20385;-88
2023/03/26 23:38:11;;;;;;;;;;;;;;;4.79;nan;99594.19;4918692;29;20393;-87
2023/03/26 23:40:56;;;;;;;;;;;;;;;4.64;nan;99599.03;4909359;29;19980;-87
2023/03/26 23:43:45;;;;;;;;;;;;;;;4.74;nan;99600.78;4943348;29;19961;-90
2023/03/26 23:46:31;;;;;;;;;;;;;;;4.67;nan;99601.34;4943658;29;20373;-89
2023/03/26 23:49:15;;;;;;;;;;;;;;;4.63;nan;99605.19;4942245;29;19964;-89
2023/03/26 23:51:59;;;;;;;;;;;;;;;4.58;nan;99604.81;4934316;29;19961;-88
2023/03/26 23:54:44;;;;;;;;;;;;;;;4.54;nan;99612.06;4917802;29;20393;-90
2023/03/26 23:57:29;;;;;;;;;;;;;;;4.49;nan;99618.63;4904633;29;19970;-90
